Time,TemperatureF,DewpointF,PressureIn,WindDirection,WindDirectionDegrees,WindSpeedMPH,WindSpeedGustMPH,Humidity,HourlyPrecipIn,Conditions,Clouds,dailyrainin,SoftwareType,DateUTC
2013-06-21 00:01:00,57.7,55.8,30.27,WNW,294,0.0,0.0,93,0.00,,,0.00,meteohub,2013-06-21 04:01:00,
2013-06-21 00:02:00,57.7,55.8,30.27,WNW,294,0.0,0.0,93,0.00,,,0.00,meteohub,2013-06-21 04:02:00,
2013-06-21 00:07:00,57.7,55.9,30.27,WNW,294,0.0,0.0,94,0.00,,,0.00,meteohub,2013-06-21 04:07:00,
2013-06-21 00:12:00,57.6,55.8,30.28,WNW,294,0.0,0.0,94,0.00,,,0.00,meteohub,2013-06-21 04:12:00,
2013-06-21 00:17:00,57.6,55.8,30.28,WNW,294,0.0,0.0,94,0.00,,,0.00,meteohub,2013-06-21 04:17:00,
2013-06-21 00:22:00,57.4,55.6,30.28,WNW,294,0.0,0.0,94,0.00,,,0.00,meteohub,2013-06-21 04:22:00,
2013-06-21 00:28:00,57.4,55.6,30.28,WNW,294,0.0,0.0,94,0.00,,,0.00,meteohub,2013-06-21 04:28:00,
2013-06-21 00:33:00,57.2,55.4,30.28,WNW,294,0.0,0.0,94,0.00,,,0.00,meteohub,2013-06-21 04:33:00,
2013-06-21 00:38:00,57.0,55.2,30.29,WNW,294,0.0,0.0,94,0.00,,,0.00,meteohub,2013-06-21 04:38:00,
2013-06-21 00:43:00,57.0,55.2,30.28,WNW,294,0.0,0.0,94,0.00,,,0.00,meteohub,2013-06-21 04:43:00,
2013-06-21 00:48:00,56.8,55.2,30.28,WNW,294,0.0,0.0,94,0.00,,,0.00,meteohub,2013-06-21 04:48:00,
2013-06-21 00:53:00,56.8,55.2,30.29,WNW,294,0.0,0.0,94,0.00,,,0.00,meteohub,2013-06-21 04:53:00,
2013-06-21 00:58:00,56.7,55.2,30.29,WNW,294,0.0,0.0,95,0.00,,,0.00,meteohub,2013-06-21 04:58:00,
2013-06-21 01:03:00,56.7,55.2,30.28,WNW,294,0.0,0.0,95,0.00,,,0.00,meteohub,2013-06-21 05:03:00,
2013-06-21 01:09:00,56.7,55.2,30.29,WNW,294,0.0,0.0,95,0.00,,,0.00,meteohub,2013-06-21 05:09:00,
2013-06-21 01:14:00,56.5,55.0,30.28,WNW,294,0.0,0.0,95,0.00,,,0.00,meteohub,2013-06-21 05:14:00,
2013-06-21 01:19:00,56.3,54.9,30.28,WNW,294,0.0,0.0,95,0.00,,,0.00,meteohub,2013-06-21 05:19:00,
2013-06-21 01:24:00,56.1,54.7,30.28,WNW,294,0.0,0.0,95,0.00,,,0.00,meteohub,2013-06-21 05:24:00,
2013-06-21 01:29:00,55.9,54.5,30.28,WNW,294,0.0,0.0,95,0.00,,,0.00,meteohub,2013-06-21 05:29:00,
2013-06-21 01:34:00,55.9,54.5,30.28,WNW,294,0.0,0.0,95,0.00,,,0.00,meteohub,2013-06-21 05:34:00,
2013-06-21 01:39:00,55.9,54.5,30.28,WNW,294,0.0,0.0,95,0.00,,,0.00,meteohub,2013-06-21 05:39:00,
2013-06-21 01:45:00,55.8,54.3,30.28,WNW,294,0.0,0.0,95,0.00,,,0.00,meteohub,2013-06-21 05:45:00,
2013-06-21 01:50:00,55.6,54.1,30.28,WNW,294,0.0,0.0,95,0.00,,,0.00,meteohub,2013-06-21 05:50:00,
2013-06-21 01:55:00,55.6,54.1,30.27,WNW,294,0.0,0.0,95,0.00,,,0.00,meteohub,2013-06-21 05:55:00,
2013-06-21 02:00:00,55.2,53.8,30.27,WNW,294,0.0,0.0,95,0.00,,,0.00,meteohub,2013-06-21 06:00:00,
2013-06-21 02:05:00,55.2,53.8,30.27,WNW,294,0.0,0.0,95,0.00,,,0.00,meteohub,2013-06-21 06:05:00,
2013-06-21 02:10:00,55.0,53.6,30.27,WNW,294,0.0,0.0,95,0.00,,,0.00,meteohub,2013-06-21 06:10:00,
2013-06-21 02:15:00,55.0,54.0,30.27,WNW,294,0.0,0.0,96,0.00,,,0.00,meteohub,2013-06-21 06:15:00,
2013-06-21 02:21:00,55.0,54.0,30.27,WNW,294,0.0,0.0,96,0.00,,,0.00,meteohub,2013-06-21 06:21:00,
2013-06-21 02:26:00,54.9,53.8,30.27,WNW,294,0.0,0.0,96,0.00,,,0.00,meteohub,2013-06-21 06:26:00,
2013-06-21 02:31:00,54.9,53.8,30.27,WNW,294,0.0,0.0,96,0.00,,,0.00,meteohub,2013-06-21 06:31:00,
2013-06-21 02:36:00,54.9,53.8,30.27,WNW,294,0.0,0.0,96,0.00,,,0.00,meteohub,2013-06-21 06:36:00,
2013-06-21 02:41:00,54.7,53.6,30.28,WNW,294,0.0,0.0,96,0.00,,,0.00,meteohub,2013-06-21 06:41:00,
2013-06-21 02:46:00,54.7,53.6,30.28,WNW,294,0.0,0.0,96,0.00,,,0.00,meteohub,2013-06-21 06:46:00,
2013-06-21 02:51:00,54.5,53.4,30.28,WNW,294,0.0,0.0,96,0.00,,,0.00,meteohub,2013-06-21 06:51:00,
2013-06-21 02:57:00,54.3,53.2,30.28,WNW,294,0.0,0.0,96,0.00,,,0.00,meteohub,2013-06-21 06:57:00,
2013-06-21 03:02:00,54.3,53.2,30.28,WNW,294,0.0,0.0,96,0.00,,,0.00,meteohub,2013-06-21 07:02:00,
2013-06-21 03:07:00,54.3,53.2,30.27,WNW,294,0.0,0.0,96,0.00,,,0.00,meteohub,2013-06-21 07:07:00,
2013-06-21 03:12:00,54.1,53.1,30.27,WNW,294,0.0,0.0,96,0.00,,,0.00,meteohub,2013-06-21 07:12:00,
2013-06-21 03:17:00,54.1,53.1,30.27,WNW,294,0.0,0.0,96,0.00,,,0.00,meteohub,2013-06-21 07:17:00,
2013-06-21 03:22:00,54.1,53.1,30.27,WNW,294,0.0,0.0,96,0.00,,,0.00,meteohub,2013-06-21 07:22:00,
2013-06-21 03:27:00,54.1,53.1,30.27,WNW,294,0.0,0.0,96,0.00,,,0.00,meteohub,2013-06-21 07:27:00,
2013-06-21 03:32:00,54.1,53.1,30.27,WNW,294,0.0,0.0,96,0.00,,,0.00,meteohub,2013-06-21 07:32:00,
2013-06-21 03:37:00,54.0,52.9,30.27,WNW,294,0.0,0.0,96,0.00,,,0.00,meteohub,2013-06-21 07:37:00,
2013-06-21 03:42:00,54.0,52.9,30.27,WNW,294,0.0,0.0,96,0.00,,,0.00,meteohub,2013-06-21 07:42:00,
2013-06-21 03:47:00,53.8,52.7,30.27,WNW,294,0.0,0.0,96,0.00,,,0.00,meteohub,2013-06-21 07:47:00,
2013-06-21 03:52:00,53.8,52.7,30.27,WNW,294,0.0,0.0,96,0.00,,,0.00,meteohub,2013-06-21 07:52:00,
2013-06-21 03:57:00,53.6,52.5,30.27,WNW,294,0.0,0.0,96,0.00,,,0.00,meteohub,2013-06-21 07:57:00,
2013-06-21 04:02:00,53.6,52.5,30.27,WNW,294,0.0,0.0,96,0.00,,,0.00,meteohub,2013-06-21 08:02:00,
2013-06-21 04:07:00,53.4,52.3,30.27,WNW,294,0.0,0.0,96,0.00,,,0.00,meteohub,2013-06-21 08:07:00,
2013-06-21 04:12:00,53.4,52.3,30.27,WNW,294,0.0,0.0,96,0.00,,,0.00,meteohub,2013-06-21 08:12:00,
2013-06-21 04:17:00,53.4,52.3,30.27,WNW,294,0.0,0.0,96,0.00,,,0.00,meteohub,2013-06-21 08:17:00,
2013-06-21 04:22:00,53.2,52.2,30.27,WNW,294,0.0,0.0,96,0.00,,,0.00,meteohub,2013-06-21 08:22:00,
2013-06-21 04:27:00,53.2,52.3,30.27,WNW,294,0.0,0.0,97,0.00,,,0.00,meteohub,2013-06-21 08:27:00,
2013-06-21 04:32:00,53.2,52.3,30.27,WNW,294,0.0,0.0,97,0.00,,,0.00,meteohub,2013-06-21 08:32:00,
2013-06-21 04:37:00,53.2,52.3,30.27,WNW,294,0.0,0.0,97,0.00,,,0.00,meteohub,2013-06-21 08:37:00,
2013-06-21 04:42:00,53.1,52.2,30.27,WNW,294,0.0,0.0,97,0.00,,,0.00,meteohub,2013-06-21 08:42:00,
2013-06-21 04:47:00,53.1,52.2,30.27,WNW,294,0.0,0.0,97,0.00,,,0.00,meteohub,2013-06-21 08:47:00,
2013-06-21 04:52:00,53.1,52.2,30.27,WNW,294,0.0,0.0,97,0.00,,,0.00,meteohub,2013-06-21 08:52:00,
2013-06-21 04:57:00,53.1,52.2,30.27,WNW,294,0.0,0.0,97,0.00,,,0.00,meteohub,2013-06-21 08:57:00,
2013-06-21 05:02:00,53.1,52.2,30.27,WNW,294,0.0,0.0,97,0.00,,,0.00,meteohub,2013-06-21 09:02:00,
2013-06-21 05:07:00,53.1,52.2,30.27,WNW,294,0.0,0.0,97,0.00,,,0.00,meteohub,2013-06-21 09:07:00,
2013-06-21 05:12:00,53.1,52.2,30.27,WNW,294,0.0,0.0,97,0.00,,,0.00,meteohub,2013-06-21 09:12:00,
2013-06-21 05:17:00,52.9,52.0,30.27,WNW,294,0.0,0.0,97,0.00,,,0.00,meteohub,2013-06-21 09:17:00,
2013-06-21 05:22:00,52.9,52.0,30.28,WNW,294,0.0,0.0,97,0.00,,,0.00,meteohub,2013-06-21 09:22:00,
2013-06-21 05:27:00,52.9,52.0,30.28,WNW,294,0.0,0.0,97,0.00,,,0.00,meteohub,2013-06-21 09:27:00,
2013-06-21 05:32:00,52.7,51.8,30.28,WNW,294,0.0,0.0,97,0.00,,,0.00,meteohub,2013-06-21 09:32:00,
2013-06-21 05:37:00,52.7,51.8,30.28,WNW,294,0.0,0.0,97,0.00,,,0.00,meteohub,2013-06-21 09:37:00,
2013-06-21 05:42:00,52.5,51.6,30.28,WNW,294,0.0,0.0,97,0.00,,,0.00,meteohub,2013-06-21 09:42:00,
2013-06-21 05:47:00,52.5,51.6,30.28,WNW,294,0.0,0.0,97,0.00,,,0.00,meteohub,2013-06-21 09:47:00,
2013-06-21 05:52:00,52.5,51.6,30.28,WNW,294,0.0,0.0,97,0.00,,,0.00,meteohub,2013-06-21 09:52:00,
2013-06-21 05:57:00,52.7,51.8,30.28,WNW,294,0.0,0.0,97,0.00,,,0.00,meteohub,2013-06-21 09:57:00,
2013-06-21 06:02:00,52.7,51.8,30.28,WNW,294,0.0,0.0,97,0.00,,,0.00,meteohub,2013-06-21 10:02:00,
2013-06-21 06:07:00,52.7,51.8,30.28,WNW,294,0.0,0.0,97,0.00,,,0.00,meteohub,2013-06-21 10:07:00,
2013-06-21 06:12:00,52.9,52.0,30.28,WNW,294,0.0,0.0,97,0.00,,,0.00,meteohub,2013-06-21 10:12:00,
2013-06-21 06:17:00,53.1,52.5,30.29,WNW,294,0.0,0.0,98,0.00,,,0.00,meteohub,2013-06-21 10:17:00,
2013-06-21 06:22:00,53.2,52.7,30.28,WNW,294,0.0,0.0,98,0.00,,,0.00,meteohub,2013-06-21 10:22:00,
2013-06-21 06:27:00,53.4,52.9,30.28,WNW,294,0.0,0.0,98,0.00,,,0.00,meteohub,2013-06-21 10:27:00,
2013-06-21 06:32:00,53.8,53.2,30.28,WNW,294,0.0,0.0,98,0.00,,,0.00,meteohub,2013-06-21 10:32:00,
2013-06-21 06:37:00,54.0,53.4,30.28,WNW,294,0.0,0.0,98,0.00,,,0.00,meteohub,2013-06-21 10:37:00,
2013-06-21 06:42:00,54.3,53.8,30.29,WNW,294,0.0,0.0,98,0.00,,,0.00,meteohub,2013-06-21 10:42:00,
2013-06-21 06:47:00,54.7,54.1,30.29,WNW,294,0.0,0.0,98,0.00,,,0.00,meteohub,2013-06-21 10:47:00,
2013-06-21 06:52:00,55.0,54.5,30.29,WNW,294,0.0,0.0,98,0.00,,,0.00,meteohub,2013-06-21 10:52:00,
2013-06-21 06:57:00,55.8,55.4,30.29,WNW,294,0.0,0.0,99,0.00,,,0.00,meteohub,2013-06-21 10:57:00,
2013-06-21 07:02:00,56.8,56.5,30.29,WNW,294,0.0,0.0,99,0.00,,,0.00,meteohub,2013-06-21 11:02:00,
2013-06-21 07:07:00,57.9,57.6,30.29,WNW,294,0.0,0.0,99,0.00,,,0.00,meteohub,2013-06-21 11:07:00,
2013-06-21 07:12:00,58.8,58.5,30.29,WNW,294,0.0,0.0,99,0.00,,,0.00,meteohub,2013-06-21 11:12:00,
2013-06-21 07:17:00,60.1,59.7,30.29,WNW,294,0.0,0.0,99,0.00,,,0.00,meteohub,2013-06-21 11:17:00,
2013-06-21 07:22:00,61.0,60.4,30.29,WNW,294,0.0,0.0,98,0.00,,,0.00,meteohub,2013-06-21 11:22:00,
2013-06-21 07:27:00,61.9,60.8,30.29,WNW,294,0.0,0.0,96,0.00,,,0.00,meteohub,2013-06-21 11:27:00,
2013-06-21 07:32:00,62.8,61.3,30.29,WNW,294,0.0,0.0,95,0.00,,,0.00,meteohub,2013-06-21 11:32:00,
2013-06-21 07:37:00,63.9,61.2,30.29,WNW,294,0.0,0.0,91,0.00,,,0.00,meteohub,2013-06-21 11:37:00,
2013-06-21 07:42:00,64.6,59.9,30.29,WNW,294,0.0,0.0,85,0.00,,,0.00,meteohub,2013-06-21 11:42:00,
2013-06-21 07:47:00,65.3,60.6,30.29,WNW,294,0.0,0.0,85,0.00,,,0.00,meteohub,2013-06-21 11:47:00,
2013-06-21 07:52:00,65.8,60.3,30.29,WNW,294,0.0,0.0,82,0.00,,,0.00,meteohub,2013-06-21 11:52:00,
2013-06-21 07:57:00,66.4,60.8,30.29,WNW,294,0.0,0.0,82,0.00,,,0.00,meteohub,2013-06-21 11:57:00,
2013-06-21 08:02:00,66.7,59.7,30.29,WNW,294,0.0,0.0,78,0.00,,,0.00,meteohub,2013-06-21 12:02:00,
2013-06-21 08:07:00,66.9,59.5,30.29,WNW,294,0.0,0.0,77,0.00,,,0.00,meteohub,2013-06-21 12:07:00,
2013-06-21 08:12:00,67.5,60.4,30.29,WNW,294,0.0,0.0,78,0.00,,,0.00,meteohub,2013-06-21 12:12:00,
2013-06-21 08:17:00,67.6,60.6,30.29,WNW,294,0.0,0.0,78,0.00,,,0.00,meteohub,2013-06-21 12:17:00,
2013-06-21 08:22:00,68.5,60.6,30.29,WNW,294,0.0,0.0,76,0.00,,,0.00,meteohub,2013-06-21 12:22:00,
2013-06-21 08:27:00,69.3,61.0,30.29,WNW,294,0.0,0.0,75,0.00,,,0.00,meteohub,2013-06-21 12:27:00,
2013-06-21 08:32:00,69.8,61.9,30.29,WNW,294,0.0,0.0,76,0.00,,,0.00,meteohub,2013-06-21 12:32:00,
2013-06-21 08:37:00,70.5,61.5,30.29,WNW,294,0.0,0.0,73,0.00,,,0.00,meteohub,2013-06-21 12:37:00,
2013-06-21 08:42:00,70.5,60.3,30.29,WNW,294,0.0,0.0,70,0.00,,,0.00,meteohub,2013-06-21 12:42:00,
2013-06-21 08:47:00,70.9,62.2,30.29,WNW,294,0.0,0.0,74,0.00,,,0.00,meteohub,2013-06-21 12:47:00,
2013-06-21 08:52:00,70.9,61.0,30.29,WNW,294,0.0,0.0,71,0.00,,,0.00,meteohub,2013-06-21 12:52:00,
2013-06-21 08:57:00,71.1,60.4,30.29,WNW,294,0.0,0.0,69,0.00,,,0.00,meteohub,2013-06-21 12:57:00,
2013-06-21 09:02:00,71.2,61.7,30.29,WNW,294,0.0,0.0,72,0.00,,,0.00,meteohub,2013-06-21 13:02:00,
2013-06-21 09:07:00,71.4,61.9,30.28,WNW,294,0.0,0.0,72,0.00,,,0.00,meteohub,2013-06-21 13:07:00,
2013-06-21 09:12:00,71.4,59.9,30.29,WNW,294,0.0,0.0,67,0.00,,,0.00,meteohub,2013-06-21 13:12:00,
2013-06-21 09:17:00,71.2,61.7,30.29,WNW,294,0.0,0.0,72,0.00,,,0.00,meteohub,2013-06-21 13:17:00,
2013-06-21 09:22:00,71.1,59.5,30.29,WNW,294,0.0,0.0,67,0.00,,,0.00,meteohub,2013-06-21 13:22:00,
2013-06-21 09:27:00,70.5,61.0,30.29,WNW,294,0.0,0.0,72,0.00,,,0.00,meteohub,2013-06-21 13:27:00,
2013-06-21 09:32:00,71.1,62.8,30.28,WNW,294,0.0,0.0,75,0.00,,,0.00,meteohub,2013-06-21 13:32:00,
2013-06-21 09:37:00,71.6,61.7,30.28,WNW,294,0.0,0.0,71,0.00,,,0.00,meteohub,2013-06-21 13:37:00,
2013-06-21 09:42:00,72.3,60.3,30.28,WNW,294,0.0,0.0,66,0.00,,,0.00,meteohub,2013-06-21 13:42:00,
2013-06-21 09:47:00,72.3,61.5,30.28,WNW,294,0.0,0.0,69,0.00,,,0.00,meteohub,2013-06-21 13:47:00,
2013-06-21 09:52:00,72.1,60.1,30.28,WNW,294,0.0,0.0,66,0.00,,,0.00,meteohub,2013-06-21 13:52:00,
2013-06-21 09:57:00,72.5,60.4,30.28,WNW,294,0.0,0.0,66,0.00,,,0.00,meteohub,2013-06-21 13:57:00,
2013-06-21 10:02:00,73.0,60.6,30.28,WNW,294,0.0,0.0,65,0.00,,,0.00,meteohub,2013-06-21 14:02:00,
2013-06-21 10:07:00,72.5,61.3,30.28,WNW,294,0.0,0.0,68,0.00,,,0.00,meteohub,2013-06-21 14:07:00,
2013-06-21 10:12:00,72.3,61.5,30.28,WNW,294,0.0,0.0,69,0.00,,,0.00,meteohub,2013-06-21 14:12:00,
2013-06-21 10:17:00,72.0,61.2,30.28,WNW,294,0.0,0.0,69,0.00,,,0.00,meteohub,2013-06-21 14:17:00,
2013-06-21 10:22:00,72.0,60.8,30.28,WNW,294,0.0,0.0,68,0.00,,,0.00,meteohub,2013-06-21 14:22:00,
2013-06-21 10:27:00,73.0,61.0,30.28,WNW,294,0.0,0.0,66,0.00,,,0.00,meteohub,2013-06-21 14:27:00,
2013-06-21 10:32:00,73.8,63.0,30.28,WNW,294,0.0,0.0,69,0.00,,,0.00,meteohub,2013-06-21 14:32:00,
2013-06-21 10:38:00,74.5,61.5,30.28,WNW,294,0.0,0.0,64,0.00,,,0.00,meteohub,2013-06-21 14:38:00,
2013-06-21 10:43:00,75.0,63.3,30.28,WNW,294,0.0,0.0,67,0.00,,,0.00,meteohub,2013-06-21 14:43:00,
2013-06-21 10:48:00,75.6,62.6,30.28,WNW,294,0.0,0.0,64,0.00,,,0.00,meteohub,2013-06-21 14:48:00,
2013-06-21 10:53:00,75.6,63.3,30.28,WNW,294,0.0,0.0,66,0.00,,,0.00,meteohub,2013-06-21 14:53:00,
2013-06-21 10:58:00,75.7,63.1,30.28,WNW,294,0.0,0.0,65,0.00,,,0.00,meteohub,2013-06-21 14:58:00,
2013-06-21 11:03:00,75.9,63.7,30.28,WNW,294,0.0,0.0,66,0.00,,,0.00,meteohub,2013-06-21 15:03:00,
2013-06-21 11:08:00,76.3,62.8,30.28,WNW,294,0.0,0.0,63,0.00,,,0.00,meteohub,2013-06-21 15:08:00,
2013-06-21 11:13:00,76.8,64.6,30.28,WNW,294,0.0,0.0,66,0.00,,,0.00,meteohub,2013-06-21 15:13:00,
2013-06-21 11:18:00,76.8,62.4,30.28,WNW,294,0.0,0.0,61,0.00,,,0.00,meteohub,2013-06-21 15:18:00,
2013-06-21 11:23:00,76.3,61.0,30.29,WNW,294,0.0,0.0,59,0.00,,,0.00,meteohub,2013-06-21 15:23:00,
2013-06-21 11:28:00,76.5,61.5,30.28,WNW,294,0.0,0.0,60,0.00,,,0.00,meteohub,2013-06-21 15:28:00,
2013-06-21 11:33:00,75.7,61.3,30.28,WNW,294,0.0,0.0,61,0.00,,,0.00,meteohub,2013-06-21 15:33:00,
2013-06-21 11:39:00,75.9,62.4,30.29,WNW,294,0.0,0.0,63,0.00,,,0.00,meteohub,2013-06-21 15:39:00,
2013-06-21 11:44:00,76.5,62.4,30.29,WNW,294,0.0,0.0,62,0.00,,,0.00,meteohub,2013-06-21 15:44:00,
2013-06-21 11:49:00,76.5,62.1,30.29,WNW,294,0.0,0.0,61,0.00,,,0.00,meteohub,2013-06-21 15:49:00,
2013-06-21 11:54:00,76.5,61.5,30.29,WNW,294,0.0,0.0,60,0.00,,,0.00,meteohub,2013-06-21 15:54:00,
2013-06-21 11:59:00,76.6,62.2,30.28,WNW,294,0.0,0.0,61,0.00,,,0.00,meteohub,2013-06-21 15:59:00,
2013-06-21 12:05:00,77.4,63.3,30.28,WNW,294,0.0,0.0,62,0.00,,,0.00,meteohub,2013-06-21 16:05:00,
2013-06-21 12:10:00,77.9,61.9,30.28,WNW,294,0.0,0.0,58,0.00,,,0.00,meteohub,2013-06-21 16:10:00,
2013-06-21 12:15:00,77.9,64.8,30.28,WNW,294,0.0,0.0,64,0.00,,,0.00,meteohub,2013-06-21 16:15:00,
2013-06-21 12:20:00,78.3,65.5,30.27,WNW,294,0.0,0.0,65,0.00,,,0.00,meteohub,2013-06-21 16:20:00,
2013-06-21 12:25:00,78.6,64.9,30.27,WNW,294,0.0,0.0,63,0.00,,,0.00,meteohub,2013-06-21 16:25:00,
2013-06-21 12:30:00,78.3,61.3,30.27,WNW,294,0.0,0.0,56,0.00,,,0.00,meteohub,2013-06-21 16:30:00,
2013-06-21 12:35:00,77.9,61.5,30.28,WNW,294,0.0,0.0,57,0.00,,,0.00,meteohub,2013-06-21 16:35:00,
2013-06-21 12:41:00,77.4,61.3,30.28,WNW,294,0.0,0.0,58,0.00,,,0.00,meteohub,2013-06-21 16:41:00,
2013-06-21 12:46:00,77.2,61.3,30.28,WNW,294,0.0,0.0,58,0.00,,,0.00,meteohub,2013-06-21 16:46:00,
2013-06-21 12:51:00,77.2,64.0,30.28,WNW,294,0.0,0.0,64,0.00,,,0.00,meteohub,2013-06-21 16:51:00,
2013-06-21 12:56:00,77.7,64.6,30.28,WNW,294,0.0,0.0,64,0.00,,,0.00,meteohub,2013-06-21 16:56:00,
2013-06-21 13:01:00,78.3,61.3,30.28,WNW,294,0.0,0.0,56,0.00,,,0.00,meteohub,2013-06-21 17:01:00,
2013-06-21 13:06:00,78.1,62.1,30.28,WNW,294,0.0,0.0,58,0.00,,,0.00,meteohub,2013-06-21 17:06:00,
2013-06-21 13:11:00,78.1,62.1,30.28,WNW,294,0.0,0.0,58,0.00,,,0.00,meteohub,2013-06-21 17:11:00,
2013-06-21 13:17:00,77.9,61.0,30.28,WNW,294,0.0,0.0,56,0.00,,,0.00,meteohub,2013-06-21 17:17:00,
2013-06-21 13:22:00,77.9,61.0,30.28,WNW,294,0.0,0.0,56,0.00,,,0.00,meteohub,2013-06-21 17:22:00,
2013-06-21 13:27:00,78.1,61.5,30.28,WNW,294,0.0,0.0,57,0.00,,,0.00,meteohub,2013-06-21 17:27:00,
2013-06-21 13:32:00,78.3,61.7,30.28,WNW,294,0.0,0.0,57,0.00,,,0.00,meteohub,2013-06-21 17:32:00,
2013-06-21 13:34:00,78.3,61.7,30.27,WNW,294,0.0,0.0,57,0.00,,,0.00,meteohub,2013-06-21 17:34:00,
2013-06-21 13:42:00,78.6,63.5,30.27,WNW,294,0.0,0.0,60,0.00,,,0.00,meteohub,2013-06-21 17:42:00,
2013-06-21 13:47:00,79.2,65.5,30.27,WNW,294,0.0,0.0,63,0.00,,,0.00,meteohub,2013-06-21 17:47:00,
2013-06-21 13:50:00,79.5,63.0,30.27,WNW,294,0.0,0.0,57,0.00,,,0.00,meteohub,2013-06-21 17:50:00,
2013-06-21 13:52:00,79.5,63.5,30.27,WNW,294,0.0,0.0,58,0.00,,,0.00,meteohub,2013-06-21 17:52:00,
2013-06-21 13:57:00,79.3,61.7,30.27,WNW,294,0.0,0.0,55,0.00,,,0.00,meteohub,2013-06-21 17:57:00,
2013-06-21 14:02:00,79.5,63.9,30.26,WNW,294,0.0,0.0,59,0.00,,,0.00,meteohub,2013-06-21 18:02:00,
2013-06-21 14:07:00,79.7,66.4,30.26,WNW,294,0.0,0.0,64,0.00,,,0.00,meteohub,2013-06-21 18:07:00,
2013-06-21 14:11:00,80.1,63.9,30.26,WNW,294,0.0,0.0,58,0.00,,,0.00,meteohub,2013-06-21 18:11:00,
2013-06-21 14:17:00,80.1,61.3,30.26,WNW,294,0.0,0.0,53,0.00,,,0.00,meteohub,2013-06-21 18:17:00,
2013-06-21 14:27:00,80.4,62.8,30.25,WNW,294,0.0,0.0,55,0.00,,,0.00,meteohub,2013-06-21 18:27:00,
2013-06-21 14:28:00,80.4,64.2,30.25,WNW,294,0.0,0.0,58,0.00,,,0.00,meteohub,2013-06-21 18:28:00,
2013-06-21 14:32:00,80.2,64.6,30.25,WNW,294,0.0,0.0,59,0.00,,,0.00,meteohub,2013-06-21 18:32:00,
2013-06-21 14:37:00,79.9,61.2,30.25,WNW,294,0.0,0.0,53,0.00,,,0.00,meteohub,2013-06-21 18:37:00,
2013-06-21 14:45:00,79.3,62.2,30.24,WNW,294,0.0,0.0,56,0.00,,,0.00,meteohub,2013-06-21 18:45:00,
2013-06-21 14:46:00,79.3,60.8,30.24,WNW,294,0.0,0.0,53,0.00,,,0.00,meteohub,2013-06-21 18:46:00,
2013-06-21 14:47:00,79.3,63.3,30.24,WNW,294,0.0,0.0,58,0.00,,,0.00,meteohub,2013-06-21 18:47:00,
2013-06-21 14:48:00,79.2,60.6,30.24,WNW,294,0.0,0.0,53,0.00,,,0.00,meteohub,2013-06-21 18:48:00,
2013-06-21 14:53:00,79.0,61.9,30.24,WNW,294,0.0,0.0,56,0.00,,,0.00,meteohub,2013-06-21 18:53:00,
2013-06-21 14:58:00,78.6,62.1,30.25,WNW,294,0.0,0.0,57,0.00,,,0.00,meteohub,2013-06-21 18:58:00,
2013-06-21 15:03:00,79.0,61.9,30.24,WNW,294,0.0,0.0,56,0.00,,,0.00,meteohub,2013-06-21 19:03:00,
2013-06-21 15:09:00,79.3,63.7,30.24,WNW,294,0.0,0.0,59,0.00,,,0.00,meteohub,2013-06-21 19:09:00,
2013-06-21 15:14:00,79.9,62.2,30.24,WNW,294,0.0,0.0,55,0.00,,,0.00,meteohub,2013-06-21 19:14:00,
2013-06-21 15:19:00,80.4,62.2,30.24,WNW,294,0.0,0.0,54,0.00,,,0.00,meteohub,2013-06-21 19:19:00,
2013-06-21 15:20:00,80.2,62.1,30.24,WNW,294,0.0,0.0,54,0.00,,,0.00,meteohub,2013-06-21 19:20:00,
2013-06-21 15:25:00,80.4,62.2,30.24,WNW,294,0.0,0.0,54,0.00,,,0.00,meteohub,2013-06-21 19:25:00,
2013-06-21 15:30:00,80.4,63.3,30.24,WNW,294,0.0,0.0,56,0.00,,,0.00,meteohub,2013-06-21 19:30:00,
2013-06-21 15:35:00,80.6,64.0,30.24,WNW,294,0.0,0.0,57,0.00,,,0.00,meteohub,2013-06-21 19:35:00,
2013-06-21 15:40:00,80.8,61.5,30.24,WNW,294,0.0,0.0,52,0.00,,,0.00,meteohub,2013-06-21 19:40:00,
2013-06-21 15:45:00,80.4,63.3,30.24,WNW,294,0.0,0.0,56,0.00,,,0.00,meteohub,2013-06-21 19:45:00,
2013-06-21 15:50:00,80.2,62.1,30.24,WNW,294,0.0,0.0,54,0.00,,,0.00,meteohub,2013-06-21 19:50:00,
2013-06-21 15:55:00,79.9,63.3,30.25,WNW,294,0.0,0.0,57,0.00,,,0.00,meteohub,2013-06-21 19:55:00,
2013-06-21 16:00:00,80.1,64.4,30.24,WNW,294,0.0,0.0,59,0.00,,,0.00,meteohub,2013-06-21 20:00:00,
2013-06-21 16:04:00,80.2,63.1,30.24,WNW,294,0.0,0.0,56,0.00,,,0.00,meteohub,2013-06-21 20:04:00,
2013-06-21 16:09:00,80.4,64.8,30.24,WNW,294,0.0,0.0,59,0.00,,,0.00,meteohub,2013-06-21 20:09:00,
2013-06-21 16:12:00,80.6,64.9,30.24,WNW,294,0.0,0.0,59,0.00,,,0.00,meteohub,2013-06-21 20:12:00,
2013-06-21 16:17:00,80.8,65.7,30.24,WNW,294,0.0,0.0,60,0.00,,,0.00,meteohub,2013-06-21 20:17:00,
2013-06-21 16:22:00,81.0,65.8,30.24,WNW,294,0.0,0.0,60,0.00,,,0.00,meteohub,2013-06-21 20:22:00,
2013-06-21 16:27:00,81.1,66.4,30.24,WNW,294,0.0,0.0,61,0.00,,,0.00,meteohub,2013-06-21 20:27:00,
2013-06-21 16:32:00,81.3,64.6,30.24,WNW,294,0.0,0.0,57,0.00,,,0.00,meteohub,2013-06-21 20:32:00,
2013-06-21 16:37:00,81.0,63.9,30.24,WNW,294,0.0,0.0,56,0.00,,,0.00,meteohub,2013-06-21 20:37:00,
2013-06-21 16:42:00,81.0,65.3,30.24,WNW,294,0.0,0.0,59,0.00,,,0.00,meteohub,2013-06-21 20:42:00,
2013-06-21 16:47:00,80.6,64.9,30.24,WNW,294,0.0,0.0,59,0.00,,,0.00,meteohub,2013-06-21 20:47:00,
2013-06-21 16:52:00,80.8,66.0,30.24,WNW,294,0.0,0.0,61,0.00,,,0.00,meteohub,2013-06-21 20:52:00,
2013-06-21 16:57:00,80.6,64.9,30.24,WNW,294,0.0,0.0,59,0.00,,,0.00,meteohub,2013-06-21 20:57:00,
2013-06-21 17:02:00,80.4,63.9,30.24,WNW,294,0.0,0.0,57,0.00,,,0.00,meteohub,2013-06-21 21:02:00,
2013-06-21 17:06:00,79.9,63.3,30.23,WNW,294,0.0,0.0,57,0.00,,,0.00,meteohub,2013-06-21 21:06:00,
2013-06-21 17:11:00,79.2,63.1,30.23,WNW,294,0.0,0.0,58,0.00,,,0.00,meteohub,2013-06-21 21:11:00,
2013-06-21 17:16:00,79.0,62.4,30.23,WNW,294,0.0,0.0,57,0.00,,,0.00,meteohub,2013-06-21 21:16:00,
2013-06-21 17:21:00,78.8,61.7,30.23,WNW,294,0.0,0.0,56,0.00,,,0.00,meteohub,2013-06-21 21:21:00,
2013-06-21 17:26:00,78.4,61.5,30.23,WNW,294,0.0,0.0,56,0.00,,,0.00,meteohub,2013-06-21 21:26:00,
2013-06-21 17:31:00,78.1,61.5,30.23,WNW,294,0.0,0.0,57,0.00,,,0.00,meteohub,2013-06-21 21:31:00,
2013-06-21 17:36:00,77.4,61.0,30.23,WNW,294,0.0,0.0,57,0.00,,,0.00,meteohub,2013-06-21 21:36:00,
2013-06-21 17:42:00,77.0,61.5,30.23,WNW,294,0.0,0.0,59,0.00,,,0.00,meteohub,2013-06-21 21:42:00,
2013-06-21 17:47:00,76.8,61.3,30.23,WNW,294,0.0,0.0,59,0.00,,,0.00,meteohub,2013-06-21 21:47:00,
2013-06-21 17:52:00,76.8,60.4,30.23,WNW,294,0.0,0.0,57,0.00,,,0.00,meteohub,2013-06-21 21:52:00,
2013-06-21 17:57:00,76.6,60.8,30.24,WNW,294,0.0,0.0,58,0.00,,,0.00,meteohub,2013-06-21 21:57:00,
2013-06-21 18:02:00,76.6,62.2,30.23,WNW,294,0.0,0.0,61,0.00,,,0.00,meteohub,2013-06-21 22:02:00,
2013-06-21 18:07:00,76.5,61.0,30.24,WNW,294,0.0,0.0,59,0.00,,,0.00,meteohub,2013-06-21 22:07:00,
2013-06-21 18:12:00,76.5,60.6,30.24,WNW,294,0.0,0.0,58,0.00,,,0.00,meteohub,2013-06-21 22:12:00,
2013-06-21 18:17:00,76.5,61.0,30.24,WNW,294,0.0,0.0,59,0.00,,,0.00,meteohub,2013-06-21 22:17:00,
2013-06-21 18:22:00,76.5,62.1,30.24,WNW,294,0.0,0.0,61,0.00,,,0.00,meteohub,2013-06-21 22:22:00,
2013-06-21 18:28:00,76.3,60.4,30.24,WNW,294,0.0,0.0,58,0.00,,,0.00,meteohub,2013-06-21 22:28:00,
2013-06-21 18:33:00,76.3,63.1,30.24,WNW,294,0.0,0.0,64,0.00,,,0.00,meteohub,2013-06-21 22:33:00,
2013-06-21 18:38:00,76.3,62.2,30.24,WNW,294,0.0,0.0,62,0.00,,,0.00,meteohub,2013-06-21 22:38:00,
2013-06-21 18:43:00,75.9,61.0,30.23,WNW,294,0.0,0.0,60,0.00,,,0.00,meteohub,2013-06-21 22:43:00,
2013-06-21 18:48:00,75.7,62.2,30.24,WNW,294,0.0,0.0,63,0.00,,,0.00,meteohub,2013-06-21 22:48:00,
2013-06-21 18:53:00,75.4,61.0,30.24,WNW,294,0.0,0.0,61,0.00,,,0.00,meteohub,2013-06-21 22:53:00,
2013-06-21 18:59:00,74.8,61.9,30.25,WNW,294,0.0,0.0,64,0.00,,,0.00,meteohub,2013-06-21 22:59:00,
2013-06-21 19:04:00,74.5,61.5,30.25,WNW,294,0.0,0.0,64,0.00,,,0.00,meteohub,2013-06-21 23:04:00,
2013-06-21 19:09:00,73.8,60.4,30.25,WNW,294,0.0,0.0,63,0.00,,,0.00,meteohub,2013-06-21 23:09:00,
2013-06-21 19:14:00,73.0,60.1,30.25,WNW,294,0.0,0.0,64,0.00,,,0.00,meteohub,2013-06-21 23:14:00,
2013-06-21 19:19:00,72.7,60.3,30.25,WNW,294,0.0,0.0,65,0.00,,,0.00,meteohub,2013-06-21 23:19:00,
2013-06-21 19:24:00,72.3,61.5,30.25,WNW,294,0.0,0.0,69,0.00,,,0.00,meteohub,2013-06-21 23:24:00,
2013-06-21 19:30:00,71.8,60.6,30.25,WNW,294,0.0,0.0,68,0.00,,,0.00,meteohub,2013-06-21 23:30:00,
2013-06-21 19:35:00,71.4,61.2,30.25,WNW,294,0.0,0.0,70,0.00,,,0.00,meteohub,2013-06-21 23:35:00,
2013-06-21 19:40:00,70.9,59.4,30.25,WNW,294,0.0,0.0,67,0.00,,,0.00,meteohub,2013-06-21 23:40:00,
2013-06-21 19:45:00,70.5,59.9,30.25,WNW,294,0.0,0.0,69,0.00,,,0.00,meteohub,2013-06-21 23:45:00,
2013-06-21 19:50:00,70.3,60.1,30.25,WNW,294,0.0,0.0,70,0.00,,,0.00,meteohub,2013-06-21 23:50:00,
2013-06-21 19:56:00,70.0,59.4,30.25,WNW,294,0.0,0.0,69,0.00,,,0.00,meteohub,2013-06-21 23:56:00,
2013-06-21 20:01:00,69.6,60.3,30.25,WNW,294,0.0,0.0,72,0.00,,,0.00,meteohub,2013-06-22 00:01:00,
2013-06-21 20:06:00,69.4,60.1,30.25,WNW,294,0.0,0.0,72,0.00,,,0.00,meteohub,2013-06-22 00:06:00,
2013-06-21 20:11:00,69.1,59.7,30.25,WNW,294,0.0,0.0,72,0.00,,,0.00,meteohub,2013-06-22 00:11:00,
2013-06-21 20:16:00,68.7,59.7,30.25,WNW,294,0.0,0.0,73,0.00,,,0.00,meteohub,2013-06-22 00:16:00,
2013-06-21 20:21:00,68.5,59.2,30.25,WNW,294,0.0,0.0,72,0.00,,,0.00,meteohub,2013-06-22 00:21:00,
2013-06-21 20:26:00,68.2,59.2,30.25,WNW,294,0.0,0.0,73,0.00,,,0.00,meteohub,2013-06-22 00:26:00,
2013-06-21 20:32:00,68.0,59.7,30.25,WNW,294,0.0,0.0,75,0.00,,,0.00,meteohub,2013-06-22 00:32:00,
2013-06-21 20:37:00,67.8,59.2,30.25,WNW,294,0.0,0.0,74,0.00,,,0.00,meteohub,2013-06-22 00:37:00,
2013-06-21 20:42:00,67.5,59.5,30.25,WNW,294,0.0,0.0,76,0.00,,,0.00,meteohub,2013-06-22 00:42:00,
2013-06-21 20:47:00,66.9,58.8,30.25,WNW,294,0.0,0.0,75,0.00,,,0.00,meteohub,2013-06-22 00:47:00,
2013-06-21 20:52:00,66.6,58.8,30.25,WNW,294,0.0,0.0,76,0.00,,,0.00,meteohub,2013-06-22 00:52:00,
2013-06-21 20:57:00,66.2,59.2,30.25,WNW,294,0.0,0.0,78,0.00,,,0.00,meteohub,2013-06-22 00:57:00,
2013-06-21 21:02:00,65.8,59.2,30.25,WNW,294,0.0,0.0,79,0.00,,,0.00,meteohub,2013-06-22 01:02:00,
2013-06-21 21:07:00,65.7,59.0,30.26,WNW,294,0.0,0.0,79,0.00,,,0.00,meteohub,2013-06-22 01:07:00,
2013-06-21 21:12:00,65.5,58.5,30.25,WNW,294,0.0,0.0,78,0.00,,,0.00,meteohub,2013-06-22 01:12:00,
2013-06-21 21:17:00,65.3,58.6,30.26,WNW,294,0.0,0.0,79,0.00,,,0.00,meteohub,2013-06-22 01:17:00,
2013-06-21 21:22:00,65.1,58.8,30.25,WNW,294,0.0,0.0,80,0.00,,,0.00,meteohub,2013-06-22 01:22:00,
2013-06-21 21:27:00,64.9,58.6,30.25,WNW,294,0.0,0.0,80,0.00,,,0.00,meteohub,2013-06-22 01:27:00,
2013-06-21 21:32:00,64.8,58.8,30.26,WNW,294,0.0,0.0,81,0.00,,,0.00,meteohub,2013-06-22 01:32:00,
2013-06-21 21:37:00,64.6,58.6,30.25,WNW,294,0.0,0.0,81,0.00,,,0.00,meteohub,2013-06-22 01:37:00,
2013-06-21 21:42:00,64.2,58.6,30.25,WNW,294,0.0,0.0,82,0.00,,,0.00,meteohub,2013-06-22 01:42:00,
2013-06-21 21:47:00,64.0,58.5,30.26,WNW,294,0.0,0.0,82,0.00,,,0.00,meteohub,2013-06-22 01:47:00,
2013-06-21 21:52:00,63.7,58.5,30.26,WNW,294,0.0,0.0,83,0.00,,,0.00,meteohub,2013-06-22 01:52:00,
2013-06-21 21:57:00,63.5,58.3,30.26,WNW,294,0.0,0.0,83,0.00,,,0.00,meteohub,2013-06-22 01:57:00,
2013-06-21 22:02:00,63.3,58.1,30.26,WNW,294,0.0,0.0,83,0.00,,,0.00,meteohub,2013-06-22 02:02:00,
2013-06-21 22:07:00,63.1,58.3,30.26,WNW,294,0.0,0.0,84,0.00,,,0.00,meteohub,2013-06-22 02:07:00,
2013-06-21 22:12:00,63.0,58.5,30.26,WNW,294,0.0,0.0,85,0.00,,,0.00,meteohub,2013-06-22 02:12:00,
2013-06-21 22:17:00,62.6,58.3,30.26,WNW,294,0.0,0.0,86,0.00,,,0.00,meteohub,2013-06-22 02:17:00,
2013-06-21 22:22:00,62.4,58.1,30.26,WNW,294,0.0,0.0,86,0.00,,,0.00,meteohub,2013-06-22 02:22:00,
2013-06-21 22:27:00,62.2,57.9,30.26,WNW,294,0.0,0.0,86,0.00,,,0.00,meteohub,2013-06-22 02:27:00,
2013-06-21 22:32:00,62.2,58.3,30.26,WNW,294,0.0,0.0,87,0.00,,,0.00,meteohub,2013-06-22 02:32:00,
2013-06-21 22:37:00,62.1,58.1,30.26,WNW,294,0.0,0.0,87,0.00,,,0.00,meteohub,2013-06-22 02:37:00,
2013-06-21 22:42:00,61.9,58.3,30.25,WNW,294,0.0,0.0,88,0.00,,,0.00,meteohub,2013-06-22 02:42:00,
2013-06-21 22:47:00,61.5,57.9,30.25,WNW,294,0.0,0.0,88,0.00,,,0.00,meteohub,2013-06-22 02:47:00,
2013-06-21 22:52:00,61.3,57.7,30.25,WNW,294,0.0,0.0,88,0.00,,,0.00,meteohub,2013-06-22 02:52:00,
2013-06-21 22:57:00,61.3,57.7,30.25,WNW,294,0.0,0.0,88,0.00,,,0.00,meteohub,2013-06-22 02:57:00,
2013-06-21 23:02:00,61.2,57.9,30.26,WNW,294,0.0,0.0,89,0.00,,,0.00,meteohub,2013-06-22 03:02:00,
2013-06-21 23:07:00,61.2,57.9,30.26,WNW,294,0.0,0.0,89,0.00,,,0.00,meteohub,2013-06-22 03:07:00,
2013-06-21 23:12:00,61.0,57.7,30.26,WNW,294,0.0,0.0,89,0.00,,,0.00,meteohub,2013-06-22 03:12:00,
2013-06-21 23:17:00,60.8,57.6,30.26,WNW,294,0.0,0.0,89,0.00,,,0.00,meteohub,2013-06-22 03:17:00,
2013-06-21 23:22:00,60.6,57.7,30.26,WNW,294,0.0,0.0,90,0.00,,,0.00,meteohub,2013-06-22 03:22:00,
2013-06-21 23:27:00,60.4,57.6,30.26,WNW,294,0.0,0.0,90,0.00,,,0.00,meteohub,2013-06-22 03:27:00,
2013-06-21 23:32:00,60.4,57.6,30.25,WNW,294,0.0,0.0,90,0.00,,,0.00,meteohub,2013-06-22 03:32:00,
2013-06-21 23:37:00,60.3,57.6,30.26,WNW,294,0.0,0.0,91,0.00,,,0.00,meteohub,2013-06-22 03:37:00,
2013-06-21 23:42:00,60.3,57.6,30.26,WNW,294,0.0,0.0,91,0.00,,,0.00,meteohub,2013-06-22 03:42:00,
2013-06-21 23:47:00,60.1,57.4,30.26,WNW,294,0.0,0.0,91,0.00,,,0.00,meteohub,2013-06-22 03:47:00,
2013-06-21 23:52:00,59.9,57.2,30.26,WNW,294,0.0,0.0,91,0.00,,,0.00,meteohub,2013-06-22 03:52:00,
2013-06-21 23:57:00,59.7,57.4,30.25,WNW,294,0.0,0.0,92,0.00,,,0.00,meteohub,2013-06-22 03:57:00,